sensor_id;sensor_type;location;lat;lon;timestamp;P1;durP1;ratioP1;P2;durP2;ratioP2
15500;SDS011;7852;52.228;5.990;2023-06-26T00:03:30;12.6;;;11.2;;
15500;SDS011;7852;52.228;5.990;2023-06-26T00:03:30;11.5;;;10.3;;
15500;SDS011;7852;52.228;5.990;2023-06-26T00:03:30;13.7;;;11.2;;
15500;SDS011;7852;52.228;5.990;2023-06-26T00:04:22;13;;;11.2;;
15500;SDS011;7852;52.228;5.990;2023-06-26T00:05:22;14.6;;;12.9;;
15500;SDS011;7852;52.228;5.990;2023-06-26T00:06:22;12.9;;;11.5;;
15500;SDS011;7852;52.228;5.990;2023-06-26T00:07:22;12.5;;;10.3;;
15500;SDS011;7852;52.228;5.990;2023-06-26T00:08:22;12.7;;;10.6;;
15500;SDS011;7852;52.228;5.990;2023-06-26T00:09:22;14.8;;;12;;
15500;SDS011;7852;52.228;5.990;2023-06-26T00:10:23;12.8;;;11.4;;
15500;SDS011;7852;52.228;5.990;2023-06-26T00:11:22;13.1;;;11.5;;
15500;SDS011;7852;52.228;5.990;2023-06-26T00:12:22;12.2;;;10.9;;
15500;SDS011;7852;52.228;5.990;2023-06-26T00:13:23;13.2;;;11.8;;
15500;SDS011;7852;52.228;5.990;2023-06-26T00:14:22;14.4;;;12.8;;
15500;SDS011;7852;52.228;5.990;2023-06-26T00:15:22;14.2;;;12.4;;
15500;SDS011;7852;52.228;5.990;2023-06-26T00:16:22;13.1;;;11.7;;
15500;SDS011;7852;52.228;5.990;2023-06-26T00:17:22;13.3;;;11.9;;
15500;SDS011;7852;52.228;5.990;2023-06-26T00:18:22;13.7;;;11.5;;
15500;SDS011;7852;52.228;5.990;2023-06-26T00:19:22;13.5;;;12.2;;
15500;SDS011;7852;52.228;5.990;2023-06-26T00:20:22;14.7;;;12.3;;
15500;SDS011;7852;52.228;5.990;2023-06-26T00:21:22;12.9;;;11.6;;
15500;SDS011;7852;52.228;5.990;2023-06-26T00:22:22;13.4;;;11.4;;
15500;SDS011;7852;52.228;5.990;2023-06-26T00:23:22;12.6;;;11.3;;
15500;SDS011;7852;52.228;5.990;2023-06-26T00:24:22;14.4;;;11.8;;
15500;SDS011;7852;52.228;5.990;2023-06-26T00:25:22;15.2;;;11.6;;
15500;SDS011;7852;52.228;5.990;2023-06-26T00:26:22;12.9;;;11.4;;
15500;SDS011;7852;52.228;5.990;2023-06-26T00:27:22;14.2;;;11.7;;
15500;SDS011;7852;52.228;5.990;2023-06-26T00:28:22;12.5;;;11.2;;
15500;SDS011;7852;52.228;5.990;2023-06-26T00:29:22;13.2;;;11.4;;
15500;SDS011;7852;52.228;5.990;2023-06-26T00:30:22;14.7;;;12.8;;
15500;SDS011;7852;52.228;5.990;2023-06-26T00:31:22;14;;;12.5;;
15500;SDS011;7852;52.228;5.990;2023-06-26T00:32:22;12.1;;;10.9;;
15500;SDS011;7852;52.228;5.990;2023-06-26T00:33:22;13.2;;;11.8;;
15500;SDS011;7852;52.228;5.990;2023-06-26T00:34:22;13.7;;;12.3;;
15500;SDS011;7852;52.228;5.990;2023-06-26T00:35:22;14.7;;;11.2;;
15500;SDS011;7852;52.228;5.990;2023-06-26T00:36:22;14.6;;;13;;
15500;SDS011;7852;52.228;5.990;2023-06-26T00:37:22;16.3;;;12.6;;
15500;SDS011;7852;52.228;5.990;2023-06-26T00:38:22;14.1;;;12.6;;
15500;SDS011;7852;52.228;5.990;2023-06-26T00:39:22;14.5;;;12.5;;
15500;SDS011;7852;52.228;5.990;2023-06-26T00:40:22;14.3;;;12.8;;
15500;SDS011;7852;52.228;5.990;2023-06-26T00:41:22;13.6;;;12;;
15500;SDS011;7852;52.228;5.990;2023-06-26T00:42:22;15.8;;;13.5;;
15500;SDS011;7852;52.228;5.990;2023-06-26T00:43:22;14;;;12.1;;
15500;SDS011;7852;52.228;5.990;2023-06-26T00:44:22;13.5;;;12.1;;
15500;SDS011;7852;52.228;5.990;2023-06-26T00:45:22;12.6;;;11.3;;
15500;SDS011;7852;52.228;5.990;2023-06-26T00:46:22;14;;;12.3;;
15500;SDS011;7852;52.228;5.990;2023-06-26T00:47:22;14.5;;;12.7;;
15500;SDS011;7852;52.228;5.990;2023-06-26T00:48:22;13.9;;;12.3;;
15500;SDS011;7852;52.228;5.990;2023-06-26T00:49:22;14.7;;;12.5;;
15500;SDS011;7852;52.228;5.990;2023-06-26T00:50:22;14.7;;;12.1;;
15500;SDS011;7852;52.228;5.990;2023-06-26T00:51:22;13.7;;;12.2;;
15500;SDS011;7852;52.228;5.990;2023-06-26T00:52:22;13.4;;;11.9;;
15500;SDS011;7852;52.228;5.990;2023-06-26T00:53:22;13.6;;;11.6;;
15500;SDS011;7852;52.228;5.990;2023-06-26T00:54:22;13.9;;;11.5;;
15500;SDS011;7852;52.228;5.990;2023-06-26T00:55:22;14.2;;;12.7;;
15500;SDS011;7852;52.228;5.990;2023-06-26T00:56:22;13.7;;;11.6;;
15500;SDS011;7852;52.228;5.990;2023-06-26T00:57:22;13.4;;;11.9;;
15500;SDS011;7852;52.228;5.990;2023-06-26T00:58:23;13.3;;;11.8;;
15500;SDS011;7852;52.228;5.990;2023-06-26T00:59:22;14.6;;;12;;
15500;SDS011;7852;52.228;5.990;2023-06-26T01:00:22;13.3;;;11.5;;
15500;SDS011;7852;52.228;5.990;2023-06-26T01:01:22;12.7;;;10.9;;
15500;SDS011;7852;52.228;5.990;2023-06-26T01:02:22;12.8;;;11.6;;
15500;SDS011;7852;52.228;5.990;2023-06-26T01:03:23;15.1;;;12.6;;
15500;SDS011;7852;52.228;5.990;2023-06-26T01:04:22;16.1;;;12.3;;
15500;SDS011;7852;52.228;5.990;2023-06-26T01:05:22;13.4;;;11.8;;
15500;SDS011;7852;52.228;5.990;2023-06-26T01:06:23;14.7;;;11.4;;
15500;SDS011;7852;52.228;5.990;2023-06-26T01:07:22;13.1;;;11.3;;
15500;SDS011;7852;52.228;5.990;2023-06-26T01:08:22;12.5;;;11.2;;
15500;SDS011;7852;52.228;5.990;2023-06-26T01:09:22;11.6;;;10.4;;
15500;SDS011;7852;52.228;5.990;2023-06-26T01:10:22;15.4;;;11.6;;
15500;SDS011;7852;52.228;5.990;2023-06-26T01:11:22;14.8;;;11.9;;
15500;SDS011;7852;52.228;5.990;2023-06-26T01:12:22;12.7;;;11.4;;
15500;SDS011;7852;52.228;5.990;2023-06-26T01:13:22;13;;;10.8;;
15500;SDS011;7852;52.228;5.990;2023-06-26T01:14:23;11.6;;;9.8;;
15500;SDS011;7852;52.228;5.990;2023-06-26T01:15:22;12;;;10.7;;
15500;SDS011;7852;52.228;5.990;2023-06-26T01:16:23;12;;;10.5;;
15500;SDS011;7852;52.228;5.990;2023-06-26T01:17:22;12.2;;;10.9;;
15500;SDS011;7852;52.228;5.990;2023-06-26T01:18:22;12.5;;;11.2;;
15500;SDS011;7852;52.228;5.990;2023-06-26T01:19:23;12;;;10.8;;
15500;SDS011;7852;52.228;5.990;2023-06-26T01:20:22;11.7;;;10.4;;
15500;SDS011;7852;52.228;5.990;2023-06-26T01:21:22;13.1;;;11.7;;
15500;SDS011;7852;52.228;5.990;2023-06-26T01:22:23;12.8;;;11.4;;
15500;SDS011;7852;52.228;5.990;2023-06-26T01:23:29;13;;;11.6;;
15500;SDS011;7852;52.228;5.990;2023-06-26T01:24:27;13.8;;;11.2;;
15500;SDS011;7852;52.228;5.990;2023-06-26T01:25:24;13.1;;;11.7;;
15500;SDS011;7852;52.228;5.990;2023-06-26T01:26:26;12.7;;;11.1;;
15500;SDS011;7852;52.228;5.990;2023-06-26T01:27:27;14.8;;;11.5;;
15500;SDS011;7852;52.228;5.990;2023-06-26T01:28:24;13.2;;;11.5;;
15500;SDS011;7852;52.228;5.990;2023-06-26T01:29:25;13.5;;;11.7;;
15500;SDS011;7852;52.228;5.990;2023-06-26T01:30:22;14.3;;;11.7;;
15500;SDS011;7852;52.228;5.990;2023-06-26T01:31:22;13.1;;;11.7;;
15500;SDS011;7852;52.228;5.990;2023-06-26T01:32:22;13.4;;;11.6;;
15500;SDS011;7852;52.228;5.990;2023-06-26T01:33:22;14;;;12.5;;
15500;SDS011;7852;52.228;5.990;2023-06-26T01:34:22;14.9;;;12.5;;
15500;SDS011;7852;52.228;5.990;2023-06-26T01:35:22;13.5;;;12.1;;
15500;SDS011;7852;52.228;5.990;2023-06-26T01:36:22;14.1;;;12.3;;
15500;SDS011;7852;52.228;5.990;2023-06-26T01:37:22;14;;;12.1;;
15500;SDS011;7852;52.228;5.990;2023-06-26T01:38:22;12.7;;;11;;
15500;SDS011;7852;52.228;5.990;2023-06-26T01:39:23;13.8;;;12.4;;
15500;SDS011;7852;52.228;5.990;2023-06-26T01:40:22;13.2;;;11.8;;
15500;SDS011;7852;52.228;5.990;2023-06-26T01:41:22;14.9;;;12.4;;
15500;SDS011;7852;52.228;5.990;2023-06-26T01:42:22;13.9;;;12.1;;
15500;SDS011;7852;52.228;5.990;2023-06-26T01:43:24;13.5;;;12.1;;
15500;SDS011;7852;52.228;5.990;2023-06-26T01:44:25;15.1;;;12.2;;
15500;SDS011;7852;52.228;5.990;2023-06-26T01:45:24;13.8;;;11.6;;
15500;SDS011;7852;52.228;5.990;2023-06-26T01:46:23;13.3;;;10.7;;
15500;SDS011;7852;52.228;5.990;2023-06-26T01:47:24;15.6;;;12;;
15500;SDS011;7852;52.228;5.990;2023-06-26T01:48:23;12.4;;;10.5;;
15500;SDS011;7852;52.228;5.990;2023-06-26T01:49:25;12.9;;;11.4;;
15500;SDS011;7852;52.228;5.990;2023-06-26T01:50:24;13.4;;;11.4;;
15500;SDS011;7852;52.228;5.990;2023-06-26T01:51:23;11.8;;;10.6;;
15500;SDS011;7852;52.228;5.990;2023-06-26T01:52:25;13.9;;;10.3;;
15500;SDS011;7852;52.228;5.990;2023-06-26T01:53:24;14.2;;;11.5;;
15500;SDS011;7852;52.228;5.990;2023-06-26T01:54:23;12.4;;;10.4;;
15500;SDS011;7852;52.228;5.990;2023-06-26T01:55:23;13.4;;;11.6;;
15500;SDS011;7852;52.228;5.990;2023-06-26T01:56:22;15.5;;;11;;
15500;SDS011;7852;52.228;5.990;2023-06-26T01:57:22;12.3;;;10.6;;
15500;SDS011;7852;52.228;5.990;2023-06-26T01:58:23;12.1;;;10.5;;
15500;SDS011;7852;52.228;5.990;2023-06-26T01:59:22;12.5;;;11;;
15500;SDS011;7852;52.228;5.990;2023-06-26T02:00:22;14.2;;;10;;
15500;SDS011;7852;52.228;5.990;2023-06-26T02:01:22;11.3;;;10.1;;
15500;SDS011;7852;52.228;5.990;2023-06-26T02:02:23;12.4;;;11.1;;
15500;SDS011;7852;52.228;5.990;2023-06-26T02:03:22;13.1;;;11.1;;
15500;SDS011;7852;52.228;5.990;2023-06-26T02:04:22;11.6;;;10.2;;
15500;SDS011;7852;52.228;5.990;2023-06-26T02:05:23;12.5;;;10.6;;
15500;SDS011;7852;52.228;5.990;2023-06-26T02:06:22;10.7;;;9.6;;
15500;SDS011;7852;52.228;5.990;2023-06-26T02:07:22;12.8;;;10.2;;
15500;SDS011;7852;52.228;5.990;2023-06-26T02:08:22;10.4;;;9.3;;
15500;SDS011;7852;52.228;5.990;2023-06-26T02:09:22;9.2;;;8.3;;
15500;SDS011;7852;52.228;5.990;2023-06-26T02:10:22;10.6;;;9.1;;
15500;SDS011;7852;52.228;5.990;2023-06-26T02:11:23;10.4;;;8;;
15500;SDS011;7852;52.228;5.990;2023-06-26T02:12:22;9.7;;;7.9;;
15500;SDS011;7852;52.228;5.990;2023-06-26T02:13:22;10.7;;;6.9;;
15500;SDS011;7852;52.228;5.990;2023-06-26T02:14:22;11.5;;;7.9;;
15500;SDS011;7852;52.228;5.990;2023-06-26T02:15:22;9.2;;;7.8;;
15500;SDS011;7852;52.228;5.990;2023-06-26T02:16:22;9.3;;;6.3;;
15500;SDS011;7852;52.228;5.990;2023-06-26T02:17:22;8;;;7;;
15500;SDS011;7852;52.228;5.990;2023-06-26T02:18:22;8.8;;;6.8;;
15500;SDS011;7852;52.228;5.990;2023-06-26T02:19:22;7.5;;;6.6;;
15500;SDS011;7852;52.228;5.990;2023-06-26T02:20:22;7.6;;;6.7;;
15500;SDS011;7852;52.228;5.990;2023-06-26T02:21:22;9.6;;;7.8;;
15500;SDS011;7852;52.228;5.990;2023-06-26T02:22:22;9.4;;;7.1;;
15500;SDS011;7852;52.228;5.990;2023-06-26T02:23:22;7.7;;;6.8;;
15500;SDS011;7852;52.228;5.990;2023-06-26T02:24:22;7.3;;;6.2;;
15500;SDS011;7852;52.228;5.990;2023-06-26T02:25:22;8.5;;;6.8;;
15500;SDS011;7852;52.228;5.990;2023-06-26T02:26:22;10.1;;;6.9;;
15500;SDS011;7852;52.228;5.990;2023-06-26T02:27:22;8.1;;;6.5;;
15500;SDS011;7852;52.228;5.990;2023-06-26T02:28:22;8.7;;;6.5;;
15500;SDS011;7852;52.228;5.990;2023-06-26T02:29:22;9;;;6.7;;
15500;SDS011;7852;52.228;5.990;2023-06-26T02:30:22;8.5;;;7.1;;
15500;SDS011;7852;52.228;5.990;2023-06-26T02:31:22;10.4;;;7.2;;
15500;SDS011;7852;52.228;5.990;2023-06-26T02:32:22;8.1;;;7.1;;
15500;SDS011;7852;52.228;5.990;2023-06-26T02:33:22;8.5;;;6.2;;
15500;SDS011;7852;52.228;5.990;2023-06-26T02:34:22;10.5;;;7.2;;
15500;SDS011;7852;52.228;5.990;2023-06-26T02:35:22;8.7;;;7.2;;
15500;SDS011;7852;52.228;5.990;2023-06-26T02:36:22;9.1;;;6.8;;
15500;SDS011;7852;52.228;5.990;2023-06-26T02:37:22;7.6;;;6.4;;
15500;SDS011;7852;52.228;5.990;2023-06-26T02:38:22;9.1;;;7;;
15500;SDS011;7852;52.228;5.990;2023-06-26T02:39:22;8.1;;;6.8;;
15500;SDS011;7852;52.228;5.990;2023-06-26T02:40:22;7.5;;;6.2;;
15500;SDS011;7852;52.228;5.990;2023-06-26T02:41:22;8.4;;;6.7;;
15500;SDS011;7852;52.228;5.990;2023-06-26T02:42:22;8.7;;;6.6;;
15500;SDS011;7852;52.228;5.990;2023-06-26T02:43:22;8.6;;;7.3;;
15500;SDS011;7852;52.228;5.990;2023-06-26T02:44:22;8.9;;;6.6;;
15500;SDS011;7852;52.228;5.990;2023-06-26T02:45:23;8.5;;;7.1;;
15500;SDS011;7852;52.228;5.990;2023-06-26T02:46:22;8.4;;;6.6;;
15500;SDS011;7852;52.228;5.990;2023-06-26T02:47:22;8.5;;;6.6;;
15500;SDS011;7852;52.228;5.990;2023-06-26T02:48:22;7.1;;;5.5;;
15500;SDS011;7852;52.228;5.990;2023-06-26T02:49:22;8;;;5.7;;
15500;SDS011;7852;52.228;5.990;2023-06-26T02:50:22;8.1;;;5.2;;
15500;SDS011;7852;52.228;5.990;2023-06-26T02:51:22;9.1;;;6.1;;
15500;SDS011;7852;52.228;5.990;2023-06-26T02:52:22;7.4;;;6;;
15500;SDS011;7852;52.228;5.990;2023-06-26T02:53:23;6.2;;;5;;
15500;SDS011;7852;52.228;5.990;2023-06-26T02:54:22;8.4;;;6.1;;
15500;SDS011;7852;52.228;5.990;2023-06-26T02:55:23;7.5;;;5.1;;
15500;SDS011;7852;52.228;5.990;2023-06-26T02:56:22;7.9;;;5.5;;
15500;SDS011;7852;52.228;5.990;2023-06-26T02:57:22;7.1;;;5.7;;
15500;SDS011;7852;52.228;5.990;2023-06-26T02:58:22;7.5;;;5.8;;
15500;SDS011;7852;52.228;5.990;2023-06-26T02:59:22;6.7;;;5.8;;
15500;SDS011;7852;52.228;5.990;2023-06-26T03:00:23;6.9;;;5.1;;
15500;SDS011;7852;52.228;5.990;2023-06-26T03:01:23;5.7;;;4.7;;
15500;SDS011;7852;52.228;5.990;2023-06-26T03:02:22;6;;;4.9;;
15500;SDS011;7852;52.228;5.990;2023-06-26T03:03:22;8.1;;;5.1;;
15500;SDS011;7852;52.228;5.990;2023-06-26T03:04:22;6.1;;;4.9;;
15500;SDS011;7852;52.228;5.990;2023-06-26T03:05:22;8.1;;;5.1;;
15500;SDS011;7852;52.228;5.990;2023-06-26T03:06:22;5.8;;;4.2;;
15500;SDS011;7852;52.228;5.990;2023-06-26T03:07:23;5.8;;;4.4;;
15500;SDS011;7852;52.228;5.990;2023-06-26T03:08:22;7.1;;;4.5;;
15500;SDS011;7852;52.228;5.990;2023-06-26T03:09:23;5.9;;;3.8;;
15500;SDS011;7852;52.228;5.990;2023-06-26T03:10:22;7.1;;;4.6;;
15500;SDS011;7852;52.228;5.990;2023-06-26T03:11:22;5.7;;;4;;
15500;SDS011;7852;52.228;5.990;2023-06-26T03:12:22;6.1;;;3.4;;
15500;SDS011;7852;52.228;5.990;2023-06-26T03:13:22;6.9;;;3.2;;
15500;SDS011;7852;52.228;5.990;2023-06-26T03:14:22;5.1;;;3.2;;
15500;SDS011;7852;52.228;5.990;2023-06-26T03:15:22;4;;;3;;
15500;SDS011;7852;52.228;5.990;2023-06-26T03:16:22;8.7;;;3.6;;
15500;SDS011;7852;52.228;5.990;2023-06-26T03:17:22;4;;;3.4;;
15500;SDS011;7852;52.228;5.990;2023-06-26T03:18:22;6;;;3.4;;
15500;SDS011;7852;52.228;5.990;2023-06-26T03:19:23;4.9;;;3.4;;
15500;SDS011;7852;52.228;5.990;2023-06-26T03:20:22;7.7;;;3.5;;
15500;SDS011;7852;52.228;5.990;2023-06-26T03:21:22;5.3;;;3.4;;
15500;SDS011;7852;52.228;5.990;2023-06-26T03:22:22;8;;;3.6;;
15500;SDS011;7852;52.228;5.990;2023-06-26T03:23:23;6.8;;;3.7;;
15500;SDS011;7852;52.228;5.990;2023-06-26T03:24:22;6.8;;;3.8;;
15500;SDS011;7852;52.228;5.990;2023-06-26T03:25:22;4.6;;;3.3;;
15500;SDS011;7852;52.228;5.990;2023-06-26T03:26:22;5.7;;;3;;
15500;SDS011;7852;52.228;5.990;2023-06-26T03:27:22;4.3;;;3.1;;
15500;SDS011;7852;52.228;5.990;2023-06-26T03:28:22;4.5;;;3.3;;
15500;SDS011;7852;52.228;5.990;2023-06-26T03:29:22;4.8;;;3.2;;
15500;SDS011;7852;52.228;5.990;2023-06-26T03:30:22;6;;;3;;
15500;SDS011;7852;52.228;5.990;2023-06-26T03:31:22;7.3;;;3.3;;
15500;SDS011;7852;52.228;5.990;2023-06-26T03:32:22;5.8;;;3.2;;
15500;SDS011;7852;52.228;5.990;2023-06-26T03:33:22;6;;;3.1;;
15500;SDS011;7852;52.228;5.990;2023-06-26T03:34:22;4.6;;;3.1;;
15500;SDS011;7852;52.228;5.990;2023-06-26T03:35:22;3.4;;;2.7;;
15500;SDS011;7852;52.228;5.990;2023-06-26T03:36:22;5.7;;;2.9;;
15500;SDS011;7852;52.228;5.990;2023-06-26T03:37:22;6.6;;;2.9;;
15500;SDS011;7852;52.228;5.990;2023-06-26T03:38:22;6.3;;;3.1;;
15500;SDS011;7852;52.228;5.990;2023-06-26T03:39:22;3.8;;;2.4;;
15500;SDS011;7852;52.228;5.990;2023-06-26T03:40:23;3.7;;;2.6;;
15500;SDS011;7852;52.228;5.990;2023-06-26T03:41:23;6.5;;;3;;
15500;SDS011;7852;52.228;5.990;2023-06-26T03:42:22;6.7;;;3.1;;
15500;SDS011;7852;52.228;5.990;2023-06-26T03:43:22;4.4;;;3.1;;
15500;SDS011;7852;52.228;5.990;2023-06-26T03:44:22;7.2;;;3.7;;
15500;SDS011;7852;52.228;5.990;2023-06-26T03:45:23;9.4;;;3.1;;
15500;SDS011;7852;52.228;5.990;2023-06-26T03:46:22;4.8;;;2.5;;
15500;SDS011;7852;52.228;5.990;2023-06-26T03:47:23;9.5;;;3.4;;
15500;SDS011;7852;52.228;5.990;2023-06-26T03:48:22;5.1;;;3.2;;
15500;SDS011;7852;52.228;5.990;2023-06-26T03:49:23;5.2;;;2.9;;
15500;SDS011;7852;52.228;5.990;2023-06-26T03:50:22;4.8;;;3;;
15500;SDS011;7852;52.228;5.990;2023-06-26T03:51:23;4.6;;;2.8;;
15500;SDS011;7852;52.228;5.990;2023-06-26T03:52:22;4.1;;;3;;
15500;SDS011;7852;52.228;5.990;2023-06-26T03:53:23;6.1;;;3;;
15500;SDS011;7852;52.228;5.990;2023-06-26T03:54:22;4.2;;;3;;
15500;SDS011;7852;52.228;5.990;2023-06-26T03:55:22;5.3;;;2.9;;
15500;SDS011;7852;52.228;5.990;2023-06-26T03:56:22;4.5;;;3.1;;
15500;SDS011;7852;52.228;5.990;2023-06-26T03:57:22;4.6;;;2.9;;
15500;SDS011;7852;52.228;5.990;2023-06-26T03:58:22;6.6;;;3.5;;
15500;SDS011;7852;52.228;5.990;2023-06-26T03:59:23;5.7;;;2.8;;
15500;SDS011;7852;52.228;5.990;2023-06-26T04:00:23;5.7;;;3.2;;
15500;SDS011;7852;52.228;5.990;2023-06-26T04:01:23;5.8;;;2.8;;
15500;SDS011;7852;52.228;5.990;2023-06-26T04:02:22;6.6;;;2.9;;
15500;SDS011;7852;52.228;5.990;2023-06-26T04:03:23;3.8;;;2.7;;
15500;SDS011;7852;52.228;5.990;2023-06-26T04:04:22;4.3;;;2.8;;
15500;SDS011;7852;52.228;5.990;2023-06-26T04:05:23;5.4;;;3.2;;
15500;SDS011;7852;52.228;5.990;2023-06-26T04:06:22;3.2;;;2.4;;
15500;SDS011;7852;52.228;5.990;2023-06-26T04:07:22;5;;;2.4;;
15500;SDS011;7852;52.228;5.990;2023-06-26T04:08:23;6.2;;;2.6;;
15500;SDS011;7852;52.228;5.990;2023-06-26T04:09:23;4.9;;;3.1;;
15500;SDS011;7852;52.228;5.990;2023-06-26T04:10:22;4.6;;;2.8;;
15500;SDS011;7852;52.228;5.990;2023-06-26T04:11:22;5.6;;;2.7;;
15500;SDS011;7852;52.228;5.990;2023-06-26T04:12:23;4.5;;;2.5;;
15500;SDS011;7852;52.228;5.990;2023-06-26T04:13:22;3.7;;;3;;
15500;SDS011;7852;52.228;5.990;2023-06-26T04:14:23;4.7;;;2.6;;
15500;SDS011;7852;52.228;5.990;2023-06-26T04:15:23;5.5;;;3;;
15500;SDS011;7852;52.228;5.990;2023-06-26T04:16:23;4.9;;;2.6;;
15500;SDS011;7852;52.228;5.990;2023-06-26T04:17:22;6;;;2.9;;
15500;SDS011;7852;52.228;5.990;2023-06-26T04:18:23;3.9;;;2.8;;
15500;SDS011;7852;52.228;5.990;2023-06-26T04:19:23;5.6;;;2.6;;
15500;SDS011;7852;52.228;5.990;2023-06-26T04:20:23;2.9;;;2.3;;
15500;SDS011;7852;52.228;5.990;2023-06-26T04:21:23;4.7;;;2.4;;
15500;SDS011;7852;52.228;5.990;2023-06-26T04:22:23;8.5;;;2.7;;
15500;SDS011;7852;52.228;5.990;2023-06-26T04:23:24;4.4;;;2.5;;
15500;SDS011;7852;52.228;5.990;2023-06-26T04:24:25;3.9;;;2.4;;
15500;SDS011;7852;52.228;5.990;2023-06-26T04:25:23;5.8;;;3;;
15500;SDS011;7852;52.228;5.990;2023-06-26T04:26:23;3.4;;;2.1;;
15500;SDS011;7852;52.228;5.990;2023-06-26T04:27:23;8.6;;;3.1;;
15500;SDS011;7852;52.228;5.990;2023-06-26T04:28:23;3.8;;;2.5;;
15500;SDS011;7852;52.228;5.990;2023-06-26T04:29:23;6;;;3.5;;
15500;SDS011;7852;52.228;5.990;2023-06-26T04:30:23;5.7;;;2.6;;
15500;SDS011;7852;52.228;5.990;2023-06-26T04:31:23;4.4;;;2.7;;
15500;SDS011;7852;52.228;5.990;2023-06-26T04:32:23;6.8;;;3;;
15500;SDS011;7852;52.228;5.990;2023-06-26T04:33:23;5;;;2.6;;
15500;SDS011;7852;52.228;5.990;2023-06-26T04:34:23;5.5;;;2.8;;
15500;SDS011;7852;52.228;5.990;2023-06-26T04:35:23;5.4;;;3;;
15500;SDS011;7852;52.228;5.990;2023-06-26T04:36:23;5.7;;;2.8;;
15500;SDS011;7852;52.228;5.990;2023-06-26T04:37:23;4.6;;;2.8;;
15500;SDS011;7852;52.228;5.990;2023-06-26T04:38:23;6.3;;;3.1;;
15500;SDS011;7852;52.228;5.990;2023-06-26T04:39:23;5.2;;;3.4;;
15500;SDS011;7852;52.228;5.990;2023-06-26T04:40:23;6.2;;;2.7;;
15500;SDS011;7852;52.228;5.990;2023-06-26T04:41:23;5.2;;;3.1;;
15500;SDS011;7852;52.228;5.990;2023-06-26T04:42:23;6.3;;;3;;
15500;SDS011;7852;52.228;5.990;2023-06-26T04:43:22;6.7;;;2.6;;
15500;SDS011;7852;52.228;5.990;2023-06-26T04:44:25;6.5;;;3.1;;
15500;SDS011;7852;52.228;5.990;2023-06-26T04:45:26;8.1;;;2.8;;
15500;SDS011;7852;52.228;5.990;2023-06-26T04:46:26;6.5;;;2.9;;
15500;SDS011;7852;52.228;5.990;2023-06-26T04:47:27;4.2;;;2.1;;
15500;SDS011;7852;52.228;5.990;2023-06-26T04:48:28;7.7;;;2.3;;
15500;SDS011;7852;52.228;5.990;2023-06-26T04:49:39;7.8;;;3;;
15500;SDS011;7852;52.228;5.990;2023-06-26T04:50:37;7.4;;;2.7;;
15500;SDS011;7852;52.228;5.990;2023-06-26T04:51:41;8;;;3.2;;
15500;SDS011;7852;52.228;5.990;2023-06-26T04:52:47;6.3;;;2.6;;
15500;SDS011;7852;52.228;5.990;2023-06-26T04:53:56;6;;;2.8;;
15500;SDS011;7852;52.228;5.990;2023-06-26T04:55:05;7.8;;;2.8;;
15500;SDS011;7852;52.228;5.990;2023-06-26T04:56:05;4.3;;;2.3;;
15500;SDS011;7852;52.228;5.990;2023-06-26T04:57:05;5.1;;;2.6;;
15500;SDS011;7852;52.228;5.990;2023-06-26T04:58:05;6.6;;;2.6;;
15500;SDS011;7852;52.228;5.990;2023-06-26T04:59:05;7.7;;;3.2;;
15500;SDS011;7852;52.228;5.990;2023-06-26T05:00:05;7.9;;;2.5;;
15500;SDS011;7852;52.228;5.990;2023-06-26T05:01:05;8.7;;;3.5;;
15500;SDS011;7852;52.228;5.990;2023-06-26T05:02:23;7.4;;;3;;
15500;SDS011;7852;52.228;5.990;2023-06-26T05:03:05;5.9;;;2.8;;
15500;SDS011;7852;52.228;5.990;2023-06-26T05:04:05;4.8;;;2.4;;
15500;SDS011;7852;52.228;5.990;2023-06-26T05:05:05;6;;;2.9;;
15500;SDS011;7852;52.228;5.990;2023-06-26T05:06:05;10.4;;;2.9;;
15500;SDS011;7852;52.228;5.990;2023-06-26T05:08:13;8;;;2.9;;
15500;SDS011;7852;52.228;5.990;2023-06-26T05:09:06;7.7;;;3.1;;
15500;SDS011;7852;52.228;5.990;2023-06-26T05:10:06;5.8;;;2.8;;
15500;SDS011;7852;52.228;5.990;2023-06-26T05:11:06;6.8;;;3;;
15500;SDS011;7852;52.228;5.990;2023-06-26T05:12:07;8.1;;;3;;
15500;SDS011;7852;52.228;5.990;2023-06-26T05:13:06;5.7;;;2.2;;
15500;SDS011;7852;52.228;5.990;2023-06-26T05:14:18;8.6;;;2.7;;
15500;SDS011;7852;52.228;5.990;2023-06-26T05:15:18;7.3;;;3.3;;
15500;SDS011;7852;52.228;5.990;2023-06-26T05:16:31;7.9;;;2.9;;
15500;SDS011;7852;52.228;5.990;2023-06-26T05:17:34;5.8;;;2.9;;
15500;SDS011;7852;52.228;5.990;2023-06-26T05:18:31;6.6;;;3.1;;
15500;SDS011;7852;52.228;5.990;2023-06-26T05:20:05;6.2;;;2.8;;
15500;SDS011;7852;52.228;5.990;2023-06-26T05:20:40;6.8;;;3;;
15500;SDS011;7852;52.228;5.990;2023-06-26T05:21:40;5.5;;;2.3;;
15500;SDS011;7852;52.228;5.990;2023-06-26T05:22:47;6.5;;;2.6;;
15500;SDS011;7852;52.228;5.990;2023-06-26T05:23:49;6.8;;;2.2;;
15500;SDS011;7852;52.228;5.990;2023-06-26T05:24:52;7;;;2.6;;
15500;SDS011;7852;52.228;5.990;2023-06-26T05:25:54;8.9;;;3.4;;
15500;SDS011;7852;52.228;5.990;2023-06-26T05:26:52;7.9;;;2.9;;
15500;SDS011;7852;52.228;5.990;2023-06-26T05:27:54;7.2;;;2.6;;
15500;SDS011;7852;52.228;5.990;2023-06-26T05:29:05;5.5;;;2.9;;
15500;SDS011;7852;52.228;5.990;2023-06-26T05:29:55;6.7;;;2.8;;
15500;SDS011;7852;52.228;5.990;2023-06-26T05:30:57;3.9;;;2.7;;
15500;SDS011;7852;52.228;5.990;2023-06-26T05:31:57;7.5;;;2.8;;
15500;SDS011;7852;52.228;5.990;2023-06-26T05:32:57;10.9;;;3.6;;
15500;SDS011;7852;52.228;5.990;2023-06-26T05:34:04;8.1;;;3.2;;
15500;SDS011;7852;52.228;5.990;2023-06-26T05:35:06;7;;;2.8;;
15500;SDS011;7852;52.228;5.990;2023-06-26T05:36:04;4.1;;;2.1;;
15500;SDS011;7852;52.228;5.990;2023-06-26T05:37:04;5.8;;;2.4;;
15500;SDS011;7852;52.228;5.990;2023-06-26T05:38:04;5.6;;;2.7;;
15500;SDS011;7852;52.228;5.990;2023-06-26T05:39:04;8.3;;;3;;
15500;SDS011;7852;52.228;5.990;2023-06-26T05:40:04;4.7;;;2.7;;
15500;SDS011;7852;52.228;5.990;2023-06-26T05:41:04;6.9;;;2.8;;
15500;SDS011;7852;52.228;5.990;2023-06-26T05:42:04;5;;;2.4;;
15500;SDS011;7852;52.228;5.990;2023-06-26T05:43:04;8.1;;;2.9;;
15500;SDS011;7852;52.228;5.990;2023-06-26T05:44:04;7.7;;;3.8;;
15500;SDS011;7852;52.228;5.990;2023-06-26T05:45:04;7.1;;;2.6;;
15500;SDS011;7852;52.228;5.990;2023-06-26T05:46:04;4.7;;;2.3;;
15500;SDS011;7852;52.228;5.990;2023-06-26T05:47:04;6.3;;;2.7;;
15500;SDS011;7852;52.228;5.990;2023-06-26T05:48:04;6.7;;;2.4;;
15500;SDS011;7852;52.228;5.990;2023-06-26T05:49:04;5.6;;;2.3;;
15500;SDS011;7852;52.228;5.990;2023-06-26T05:50:05;5.5;;;2.4;;
15500;SDS011;7852;52.228;5.990;2023-06-26T05:51:04;6.8;;;2.6;;
15500;SDS011;7852;52.228;5.990;2023-06-26T05:52:04;7.5;;;2.1;;
15500;SDS011;7852;52.228;5.990;2023-06-26T05:53:04;7.4;;;2.5;;
15500;SDS011;7852;52.228;5.990;2023-06-26T05:54:04;6.6;;;2.1;;
15500;SDS011;7852;52.228;5.990;2023-06-26T05:55:04;4.1;;;2;;
15500;SDS011;7852;52.228;5.990;2023-06-26T05:56:04;7.8;;;2.4;;
15500;SDS011;7852;52.228;5.990;2023-06-26T05:57:04;4.6;;;2.2;;
15500;SDS011;7852;52.228;5.990;2023-06-26T05:58:04;2.9;;;2;;
15500;SDS011;7852;52.228;5.990;2023-06-26T05:59:04;3;;;1.6;;
15500;SDS011;7852;52.228;5.990;2023-06-26T06:00:05;3.4;;;1.6;;
15500;SDS011;7852;52.228;5.990;2023-06-26T06:01:04;2.1;;;1.3;;
15500;SDS011;7852;52.228;5.990;2023-06-26T06:02:04;3.4;;;1.9;;
15500;SDS011;7852;52.228;5.990;2023-06-26T06:03:04;8.6;;;1.6;;
15500;SDS011;7852;52.228;5.990;2023-06-26T06:04:04;6;;;1.6;;
15500;SDS011;7852;52.228;5.990;2023-06-26T06:05:04;3.6;;;1.5;;
15500;SDS011;7852;52.228;5.990;2023-06-26T06:06:04;3.4;;;1.6;;
15500;SDS011;7852;52.228;5.990;2023-06-26T06:07:04;2;;;1.2;;
15500;SDS011;7852;52.228;5.990;2023-06-26T06:08:04;2.7;;;1.1;;
15500;SDS011;7852;52.228;5.990;2023-06-26T06:09:04;6.6;;;1.3;;
15500;SDS011;7852;52.228;5.990;2023-06-26T06:10:04;1.5;;;1;;
15500;SDS011;7852;52.228;5.990;2023-06-26T06:11:04;3.4;;;1.6;;
15500;SDS011;7852;52.228;5.990;2023-06-26T06:12:04;2.6;;;1.1;;
15500;SDS011;7852;52.228;5.990;2023-06-26T06:13:09;2.4;;;0.9;;
15500;SDS011;7852;52.228;5.990;2023-06-26T06:14:04;2.7;;;1.2;;
15500;SDS011;7852;52.228;5.990;2023-06-26T06:15:04;1.8;;;0.9;;
15500;SDS011;7852;52.228;5.990;2023-06-26T06:16:04;2.7;;;1.1;;
15500;SDS011;7852;52.228;5.990;2023-06-26T06:17:04;6.4;;;1.4;;
15500;SDS011;7852;52.228;5.990;2023-06-26T06:18:04;5.2;;;1.7;;
15500;SDS011;7852;52.228;5.990;2023-06-26T06:19:04;2.6;;;1.5;;
15500;SDS011;7852;52.228;5.990;2023-06-26T06:20:04;1.8;;;1.1;;